sensor_id;sensor_type;location;lat;lon;timestamp;P1;durP1;ratioP1;P2;durP2;ratioP2
21868;SDS011;11099;41.564;23.296;2023-07-31T00:00:31;7.32;;;5.57;;
21868;SDS011;11099;41.564;23.296;2023-07-31T00:02:56;9.23;;;5.53;;
21868;SDS011;11099;41.564;23.296;2023-07-31T00:05:22;6.18;;;5.50;;
21868;SDS011;11099;41.564;23.296;2023-07-31T00:07:47;5.57;;;5.18;;
21868;SDS011;11099;41.564;23.296;2023-07-31T00:10:13;6.72;;;5.20;;
21868;SDS011;11099;41.564;23.296;2023-07-31T00:12:39;5.78;;;5.10;;
21868;SDS011;11099;41.564;23.296;2023-07-31T00:15:06;5.68;;;5.18;;
21868;SDS011;11099;41.564;23.296;2023-07-31T00:17:32;10.27;;;5.68;;
21868;SDS011;11099;41.564;23.296;2023-07-31T00:19:57;6.78;;;5.43;;
21868;SDS011;11099;41.564;23.296;2023-07-31T00:22:23;7.18;;;5.63;;
21868;SDS011;11099;41.564;23.296;2023-07-31T00:24:49;14.15;;;6.15;;
21868;SDS011;11099;41.564;23.296;2023-07-31T00:27:14;7.22;;;6.53;;
21868;SDS011;11099;41.564;23.296;2023-07-31T00:29:40;6.78;;;6.07;;
21868;SDS011;11099;41.564;23.296;2023-07-31T00:32:06;6.60;;;6.00;;
21868;SDS011;11099;41.564;23.296;2023-07-31T00:34:31;6.70;;;5.90;;
21868;SDS011;11099;41.564;23.296;2023-07-31T00:36:57;7.88;;;6.88;;
21868;SDS011;11099;41.564;23.296;2023-07-31T00:39:22;7.63;;;6.20;;
21868;SDS011;11099;41.564;23.296;2023-07-31T00:41:48;9.15;;;6.43;;
21868;SDS011;11099;41.564;23.296;2023-07-31T00:44:13;7.50;;;6.80;;
21868;SDS011;11099;41.564;23.296;2023-07-31T00:46:39;6.97;;;6.25;;
21868;SDS011;11099;41.564;23.296;2023-07-31T00:49:04;7.20;;;6.60;;
21868;SDS011;11099;41.564;23.296;2023-07-31T00:51:30;9.63;;;6.32;;
21868;SDS011;11099;41.564;23.296;2023-07-31T00:53:56;9.30;;;6.47;;
21868;SDS011;11099;41.564;23.296;2023-07-31T00:56:22;7.30;;;6.60;;
21868;SDS011;11099;41.564;23.296;2023-07-31T00:58:49;7.97;;;7.18;;
21868;SDS011;11099;41.564;23.296;2023-07-31T01:01:14;9.90;;;6.78;;
21868;SDS011;11099;41.564;23.296;2023-07-31T01:03:40;7.20;;;6.50;;
21868;SDS011;11099;41.564;23.296;2023-07-31T01:06:14;7.45;;;6.65;;
21868;SDS011;11099;41.564;23.296;2023-07-31T01:11:28;8.38;;;6.43;;
21868;SDS011;11099;41.564;23.296;2023-07-31T01:13:55;10.60;;;6.50;;
21868;SDS011;11099;41.564;23.296;2023-07-31T01:16:21;8.35;;;5.88;;
21868;SDS011;11099;41.564;23.296;2023-07-31T01:18:47;7.57;;;6.10;;
21868;SDS011;11099;41.564;23.296;2023-07-31T01:24:07;6.43;;;5.80;;
21868;SDS011;11099;41.564;23.296;2023-07-31T01:26:56;5.28;;;4.70;;
21868;SDS011;11099;41.564;23.296;2023-07-31T01:34:18;7.45;;;5.25;;
21868;SDS011;11099;41.564;23.296;2023-07-31T01:36:46;5.30;;;4.90;;
21868;SDS011;11099;41.564;23.296;2023-07-31T01:39:11;7.28;;;4.78;;
21868;SDS011;11099;41.564;23.296;2023-07-31T01:41:37;6.75;;;5.10;;
21868;SDS011;11099;41.564;23.296;2023-07-31T01:44:02;5.43;;;4.63;;
21868;SDS011;11099;41.564;23.296;2023-07-31T01:46:28;8.15;;;4.75;;
21868;SDS011;11099;41.564;23.296;2023-07-31T01:48:53;10.25;;;5.20;;
21868;SDS011;11099;41.564;23.296;2023-07-31T01:51:19;6.75;;;4.80;;
21868;SDS011;11099;41.564;23.296;2023-07-31T01:53:44;5.82;;;5.07;;
21868;SDS011;11099;41.564;23.296;2023-07-31T01:56:09;7.88;;;4.40;;
21868;SDS011;11099;41.564;23.296;2023-07-31T01:58:35;8.70;;;5.05;;
21868;SDS011;11099;41.564;23.296;2023-07-31T02:01:00;4.70;;;4.40;;
21868;SDS011;11099;41.564;23.296;2023-07-31T02:03:26;4.97;;;4.40;;
21868;SDS011;11099;41.564;23.296;2023-07-31T02:05:51;5.60;;;5.05;;
21868;SDS011;11099;41.564;23.296;2023-07-31T02:08:18;5.47;;;4.53;;
21868;SDS011;11099;41.564;23.296;2023-07-31T02:10:44;5.50;;;4.93;;
21868;SDS011;11099;41.564;23.296;2023-07-31T02:13:09;5.63;;;4.90;;
21868;SDS011;11099;41.564;23.296;2023-07-31T02:15:36;5.43;;;4.30;;
21868;SDS011;11099;41.564;23.296;2023-07-31T02:18:02;5.38;;;4.97;;
21868;SDS011;11099;41.564;23.296;2023-07-31T02:20:27;5.32;;;4.60;;
21868;SDS011;11099;41.564;23.296;2023-07-31T02:22:53;5.15;;;4.75;;
21868;SDS011;11099;41.564;23.296;2023-07-31T02:25:18;5.28;;;4.78;;
21868;SDS011;11099;41.564;23.296;2023-07-31T02:27:44;5.20;;;4.70;;
21868;SDS011;11099;41.564;23.296;2023-07-31T02:30:09;4.85;;;4.45;;
21868;SDS011;11099;41.564;23.296;2023-07-31T02:32:35;5.85;;;4.75;;
21868;SDS011;11099;41.564;23.296;2023-07-31T02:35:01;5.63;;;4.93;;
21868;SDS011;11099;41.564;23.296;2023-07-31T02:37:26;5.22;;;4.78;;
21868;SDS011;11099;41.564;23.296;2023-07-31T02:39:53;5.05;;;4.70;;
21868;SDS011;11099;41.564;23.296;2023-07-31T02:42:19;6.45;;;4.78;;
21868;SDS011;11099;41.564;23.296;2023-07-31T02:44:45;5.28;;;4.78;;
21868;SDS011;11099;41.564;23.296;2023-07-31T02:47:10;5.13;;;4.65;;
21868;SDS011;11099;41.564;23.296;2023-07-31T02:49:36;5.00;;;4.60;;
21868;SDS011;11099;41.564;23.296;2023-07-31T02:52:01;5.90;;;5.30;;
21868;SDS011;11099;41.564;23.296;2023-07-31T02:54:27;5.78;;;5.28;;
21868;SDS011;11099;41.564;23.296;2023-07-31T02:56:52;5.25;;;4.85;;
21868;SDS011;11099;41.564;23.296;2023-07-31T02:59:17;7.40;;;6.28;;
21868;SDS011;11099;41.564;23.296;2023-07-31T03:01:43;6.75;;;6.13;;
21868;SDS011;11099;41.564;23.296;2023-07-31T03:04:09;6.88;;;6.28;;
21868;SDS011;11099;41.564;23.296;2023-07-31T03:06:34;6.40;;;5.80;;
21868;SDS011;11099;41.564;23.296;2023-07-31T03:09:00;6.75;;;6.20;;
21868;SDS011;11099;41.564;23.296;2023-07-31T03:11:25;6.10;;;5.60;;
21868;SDS011;11099;41.564;23.296;2023-07-31T03:13:51;6.97;;;6.30;;
21868;SDS011;11099;41.564;23.296;2023-07-31T03:16:17;6.57;;;5.97;;
21868;SDS011;11099;41.564;23.296;2023-07-31T03:18:42;7.35;;;5.55;;
21868;SDS011;11099;41.564;23.296;2023-07-31T03:21:08;5.28;;;4.70;;
21868;SDS011;11099;41.564;23.296;2023-07-31T03:23:33;4.32;;;3.65;;
21868;SDS011;11099;41.564;23.296;2023-07-31T03:26:00;4.35;;;3.70;;
21868;SDS011;11099;41.564;23.296;2023-07-31T03:28:28;2.90;;;2.70;;
21868;SDS011;11099;41.564;23.296;2023-07-31T03:30:53;3.45;;;3.17;;
21868;SDS011;11099;41.564;23.296;2023-07-31T03:33:19;3.28;;;3.05;;
21868;SDS011;11099;41.564;23.296;2023-07-31T03:35:44;3.58;;;3.28;;
21868;SDS011;11099;41.564;23.296;2023-07-31T03:38:10;4.55;;;3.45;;
21868;SDS011;11099;41.564;23.296;2023-07-31T03:40:36;3.80;;;3.30;;
21868;SDS011;11099;41.564;23.296;2023-07-31T03:43:01;3.80;;;3.50;;
21868;SDS011;11099;41.564;23.296;2023-07-31T03:45:27;3.88;;;3.40;;
21868;SDS011;11099;41.564;23.296;2023-07-31T03:47:52;3.80;;;3.50;;
21868;SDS011;11099;41.564;23.296;2023-07-31T03:50:19;4.72;;;4.32;;
21868;SDS011;11099;41.564;23.296;2023-07-31T03:52:45;4.82;;;4.35;;
21868;SDS011;11099;41.564;23.296;2023-07-31T03:55:10;6.30;;;4.90;;
21868;SDS011;11099;41.564;23.296;2023-07-31T03:57:36;6.55;;;5.28;;
21868;SDS011;11099;41.564;23.296;2023-07-31T04:00:01;6.32;;;4.70;;
21868;SDS011;11099;41.564;23.296;2023-07-31T04:02:27;5.28;;;4.80;;
21868;SDS011;11099;41.564;23.296;2023-07-31T04:04:52;5.40;;;4.85;;
21868;SDS011;11099;41.564;23.296;2023-07-31T04:07:18;7.07;;;5.28;;
21868;SDS011;11099;41.564;23.296;2023-07-31T04:09:43;6.25;;;5.75;;
21868;SDS011;11099;41.564;23.296;2023-07-31T04:12:09;6.65;;;6.05;;
21868;SDS011;11099;41.564;23.296;2023-07-31T04:14:34;8.13;;;6.82;;
21868;SDS011;11099;41.564;23.296;2023-07-31T04:17:00;9.80;;;6.85;;
21868;SDS011;11099;41.564;23.296;2023-07-31T04:19:25;9.75;;;6.85;;
21868;SDS011;11099;41.564;23.296;2023-07-31T04:21:51;8.43;;;7.63;;
21868;SDS011;11099;41.564;23.296;2023-07-31T04:24:16;8.23;;;7.60;;
21868;SDS011;11099;41.564;23.296;2023-07-31T04:26:49;8.23;;;7.50;;
21868;SDS011;11099;41.564;23.296;2023-07-31T04:29:14;8.82;;;7.93;;
21868;SDS011;11099;41.564;23.296;2023-07-31T04:31:41;10.52;;;8.85;;
21868;SDS011;11099;41.564;23.296;2023-07-31T04:34:06;10.18;;;8.02;;
21868;SDS011;11099;41.564;23.296;2023-07-31T04:36:33;10.05;;;9.00;;
21868;SDS011;11099;41.564;23.296;2023-07-31T04:38:59;10.23;;;9.10;;
21868;SDS011;11099;41.564;23.296;2023-07-31T04:41:25;13.57;;;9.88;;
21868;SDS011;11099;41.564;23.296;2023-07-31T04:43:50;9.43;;;8.48;;
21868;SDS011;11099;41.564;23.296;2023-07-31T04:46:16;10.48;;;9.50;;
21868;SDS011;11099;41.564;23.296;2023-07-31T04:48:42;10.07;;;9.15;;
21868;SDS011;11099;41.564;23.296;2023-07-31T04:51:08;10.75;;;9.73;;
21868;SDS011;11099;41.564;23.296;2023-07-31T04:53:36;10.02;;;9.02;;
21868;SDS011;11099;41.564;23.296;2023-07-31T04:56:02;10.02;;;9.23;;
21868;SDS011;11099;41.564;23.296;2023-07-31T04:58:28;9.55;;;8.73;;
21868;SDS011;11099;41.564;23.296;2023-07-31T05:00:53;9.18;;;8.38;;
21868;SDS011;11099;41.564;23.296;2023-07-31T05:03:19;9.75;;;8.60;;
21868;SDS011;11099;41.564;23.296;2023-07-31T05:05:44;9.48;;;8.60;;
21868;SDS011;11099;41.564;23.296;2023-07-31T05:08:10;9.18;;;8.38;;
21868;SDS011;11099;41.564;23.296;2023-07-31T05:10:35;9.15;;;8.35;;
21868;SDS011;11099;41.564;23.296;2023-07-31T05:13:01;11.00;;;8.57;;
21868;SDS011;11099;41.564;23.296;2023-07-31T05:15:27;9.18;;;8.23;;
21868;SDS011;11099;41.564;23.296;2023-07-31T05:17:53;10.00;;;9.00;;
21868;SDS011;11099;41.564;23.296;2023-07-31T05:20:20;9.48;;;8.60;;
21868;SDS011;11099;41.564;23.296;2023-07-31T05:22:46;9.88;;;8.98;;
21868;SDS011;11099;41.564;23.296;2023-07-31T05:25:11;9.25;;;8.35;;
21868;SDS011;11099;41.564;23.296;2023-07-31T05:27:37;10.77;;;9.20;;
21868;SDS011;11099;41.564;23.296;2023-07-31T05:30:02;9.70;;;8.80;;
21868;SDS011;11099;41.564;23.296;2023-07-31T05:32:30;11.52;;;9.60;;
21868;SDS011;11099;41.564;23.296;2023-07-31T05:34:56;10.50;;;9.38;;
21868;SDS011;11099;41.564;23.296;2023-07-31T05:37:21;11.45;;;10.30;;
21868;SDS011;11099;41.564;23.296;2023-07-31T05:39:47;12.30;;;10.30;;
21868;SDS011;11099;41.564;23.296;2023-07-31T05:42:13;9.98;;;9.15;;
21868;SDS011;11099;41.564;23.296;2023-07-31T05:44:38;11.00;;;10.00;;
21868;SDS011;11099;41.564;23.296;2023-07-31T05:47:04;10.70;;;9.60;;
21868;SDS011;11099;41.564;23.296;2023-07-31T05:49:29;11.40;;;10.40;;
21868;SDS011;11099;41.564;23.296;2023-07-31T05:51:55;11.60;;;10.43;;
21868;SDS011;11099;41.564;23.296;2023-07-31T05:54:20;11.40;;;10.30;;
21868;SDS011;11099;41.564;23.296;2023-07-31T05:56:46;11.05;;;9.95;;
21868;SDS011;11099;41.564;23.296;2023-07-31T05:59:12;11.48;;;10.43;;
21868;SDS011;11099;41.564;23.296;2023-07-31T06:01:38;11.85;;;10.82;;
21868;SDS011;11099;41.564;23.296;2023-07-31T06:04:04;12.73;;;11.57;;
21868;SDS011;11099;41.564;23.296;2023-07-31T06:06:29;13.05;;;11.95;;
21868;SDS011;11099;41.564;23.296;2023-07-31T06:08:55;13.45;;;12.25;;
21868;SDS011;11099;41.564;23.296;2023-07-31T06:11:21;13.70;;;12.20;;
21868;SDS011;11099;41.564;23.296;2023-07-31T06:13:46;13.73;;;12.43;;
21868;SDS011;11099;41.564;23.296;2023-07-31T06:16:13;12.70;;;11.57;;
21868;SDS011;11099;41.564;23.296;2023-07-31T06:18:39;14.00;;;12.70;;
21868;SDS011;11099;41.564;23.296;2023-07-31T06:21:04;14.90;;;13.45;;
21868;SDS011;11099;41.564;23.296;2023-07-31T06:23:30;13.80;;;12.45;;
21868;SDS011;11099;41.564;23.296;2023-07-31T06:25:56;14.25;;;12.95;;
21868;SDS011;11099;41.564;23.296;2023-07-31T06:28:25;14.77;;;13.43;;
21868;SDS011;11099;41.564;23.296;2023-07-31T06:33:38;13.68;;;12.35;;
21868;SDS011;11099;41.564;23.296;2023-07-31T06:36:03;13.90;;;12.70;;
21868;SDS011;11099;41.564;23.296;2023-07-31T06:38:29;14.90;;;13.00;;
21868;SDS011;11099;41.564;23.296;2023-07-31T06:40:55;17.20;;;12.82;;
21868;SDS011;11099;41.564;23.296;2023-07-31T06:43:20;15.23;;;13.90;;
21868;SDS011;11099;41.564;23.296;2023-07-31T06:45:46;14.00;;;12.60;;
21868;SDS011;11099;41.564;23.296;2023-07-31T06:48:13;16.23;;;13.50;;
21868;SDS011;11099;41.564;23.296;2023-07-31T06:50:39;14.77;;;13.38;;
21868;SDS011;11099;41.564;23.296;2023-07-31T06:53:04;13.98;;;12.80;;
21868;SDS011;11099;41.564;23.296;2023-07-31T06:55:30;14.80;;;12.98;;
21868;SDS011;11099;41.564;23.296;2023-07-31T06:57:56;14.82;;;13.52;;
21868;SDS011;11099;41.564;23.296;2023-07-31T07:00:22;14.75;;;13.23;;
21868;SDS011;11099;41.564;23.296;2023-07-31T07:02:49;16.90;;;12.38;;
21868;SDS011;11099;41.564;23.296;2023-07-31T07:05:15;14.10;;;12.57;;
21868;SDS011;11099;41.564;23.296;2023-07-31T07:07:41;12.85;;;11.73;;
21868;SDS011;11099;41.564;23.296;2023-07-31T07:10:08;13.68;;;12.45;;
21868;SDS011;11099;41.564;23.296;2023-07-31T07:12:33;13.82;;;12.52;;
21868;SDS011;11099;41.564;23.296;2023-07-31T07:15:00;14.10;;;12.73;;
21868;SDS011;11099;41.564;23.296;2023-07-31T07:17:26;14.18;;;12.88;;
21868;SDS011;11099;41.564;23.296;2023-07-31T07:19:53;13.38;;;11.98;;
21868;SDS011;11099;41.564;23.296;2023-07-31T07:22:20;12.82;;;11.73;;
21868;SDS011;11099;41.564;23.296;2023-07-31T07:24:45;13.25;;;12.10;;
21868;SDS011;11099;41.564;23.296;2023-07-31T07:27:11;13.25;;;11.95;;
21868;SDS011;11099;41.564;23.296;2023-07-31T07:29:37;12.65;;;11.45;;
21868;SDS011;11099;41.564;23.296;2023-07-31T07:32:03;13.38;;;12.07;;
21868;SDS011;11099;41.564;23.296;2023-07-31T07:34:29;12.13;;;11.02;;
21868;SDS011;11099;41.564;23.296;2023-07-31T07:36:54;13.40;;;12.10;;
21868;SDS011;11099;41.564;23.296;2023-07-31T07:39:20;12.95;;;11.57;;
21868;SDS011;11099;41.564;23.296;2023-07-31T07:41:46;13.23;;;12.13;;
21868;SDS011;11099;41.564;23.296;2023-07-31T07:44:12;12.95;;;11.77;;
21868;SDS011;11099;41.564;23.296;2023-07-31T07:46:38;13.95;;;12.68;;
21868;SDS011;11099;41.564;23.296;2023-07-31T07:49:04;12.38;;;11.27;;
21868;SDS011;11099;41.564;23.296;2023-07-31T07:51:30;12.27;;;11.07;;
21868;SDS011;11099;41.564;23.296;2023-07-31T07:53:56;11.77;;;10.77;;
21868;SDS011;11099;41.564;23.296;2023-07-31T07:58:51;12.95;;;10.77;;
21868;SDS011;11099;41.564;23.296;2023-07-31T08:01:17;11.13;;;10.02;;
21868;SDS011;11099;41.564;23.296;2023-07-31T08:03:43;11.73;;;10.27;;
21868;SDS011;11099;41.564;23.296;2023-07-31T08:06:08;12.07;;;10.90;;
21868;SDS011;11099;41.564;23.296;2023-07-31T08:08:35;11.40;;;10.50;;
21868;SDS011;11099;41.564;23.296;2023-07-31T08:11:00;11.93;;;10.75;;
21868;SDS011;11099;41.564;23.296;2023-07-31T08:13:27;11.45;;;10.35;;
21868;SDS011;11099;41.564;23.296;2023-07-31T08:15:53;10.63;;;9.73;;
21868;SDS011;11099;41.564;23.296;2023-07-31T08:18:19;10.50;;;9.40;;
21868;SDS011;11099;41.564;23.296;2023-07-31T08:20:48;9.30;;;8.48;;
21868;SDS011;11099;41.564;23.296;2023-07-31T08:23:16;9.23;;;8.45;;
21868;SDS011;11099;41.564;23.296;2023-07-31T08:25:47;10.18;;;9.15;;
21868;SDS011;11099;41.564;23.296;2023-07-31T08:28:17;9.50;;;8.57;;
21868;SDS011;11099;41.564;23.296;2023-07-31T08:30:55;9.95;;;9.05;;
21868;SDS011;11099;41.564;23.296;2023-07-31T08:33:23;11.43;;;9.68;;
21868;SDS011;11099;41.564;23.296;2023-07-31T08:35:50;9.95;;;9.15;;
21868;SDS011;11099;41.564;23.296;2023-07-31T08:38:16;10.13;;;9.23;;
21868;SDS011;11099;41.564;23.296;2023-07-31T08:40:41;11.20;;;10.30;;
21868;SDS011;11099;41.564;23.296;2023-07-31T08:43:07;11.55;;;10.65;;
21868;SDS011;11099;41.564;23.296;2023-07-31T08:45:33;10.55;;;9.75;;
21868;SDS011;11099;41.564;23.296;2023-07-31T08:47:59;10.10;;;9.30;;
21868;SDS011;11099;41.564;23.296;2023-07-31T08:50:25;10.77;;;9.88;;
21868;SDS011;11099;41.564;23.296;2023-07-31T08:52:51;9.82;;;8.98;;
21868;SDS011;11099;41.564;23.296;2023-07-31T08:55:17;8.98;;;8.23;;
21868;SDS011;11099;41.564;23.296;2023-07-31T08:57:50;8.80;;;8.02;;
21868;SDS011;11099;41.564;23.296;2023-07-31T09:00:18;8.75;;;7.88;;
21868;SDS011;11099;41.564;23.296;2023-07-31T09:03:02;9.43;;;8.63;;
21868;SDS011;11099;41.564;23.296;2023-07-31T09:05:29;7.93;;;7.32;;
21868;SDS011;11099;41.564;23.296;2023-07-31T09:07:56;7.55;;;6.85;;
21868;SDS011;11099;41.564;23.296;2023-07-31T09:10:23;8.38;;;7.68;;
21868;SDS011;11099;41.564;23.296;2023-07-31T09:12:49;8.68;;;8.07;;
21868;SDS011;11099;41.564;23.296;2023-07-31T09:15:16;10.32;;;9.38;;
21868;SDS011;11099;41.564;23.296;2023-07-31T09:17:42;9.68;;;8.88;;
21868;SDS011;11099;41.564;23.296;2023-07-31T09:20:14;9.00;;;8.30;;
21868;SDS011;11099;41.564;23.296;2023-07-31T09:22:43;8.77;;;8.07;;
21868;SDS011;11099;41.564;23.296;2023-07-31T09:27:48;8.32;;;7.57;;
21868;SDS011;11099;41.564;23.296;2023-07-31T09:30:18;11.32;;;8.38;;
21868;SDS011;11099;41.564;23.296;2023-07-31T09:32:45;9.15;;;7.75;;
21868;SDS011;11099;41.564;23.296;2023-07-31T09:35:21;8.30;;;7.70;;
21868;SDS011;11099;41.564;23.296;2023-07-31T09:37:55;7.15;;;6.50;;
21868;SDS011;11099;41.564;23.296;2023-07-31T09:40:30;7.07;;;6.53;;
21868;SDS011;11099;41.564;23.296;2023-07-31T09:43:06;7.07;;;6.57;;
21868;SDS011;11099;41.564;23.296;2023-07-31T09:45:35;7.03;;;6.43;;
21868;SDS011;11099;41.564;23.296;2023-07-31T09:48:15;7.15;;;6.65;;
21868;SDS011;11099;41.564;23.296;2023-07-31T09:50:42;6.93;;;6.43;;
21868;SDS011;11099;41.564;23.296;2023-07-31T09:53:08;7.20;;;6.65;;
21868;SDS011;11099;41.564;23.296;2023-07-31T09:55:34;5.55;;;5.15;;
21868;SDS011;11099;41.564;23.296;2023-07-31T09:58:05;6.05;;;5.50;;
21868;SDS011;11099;41.564;23.296;2023-07-31T10:00:32;6.47;;;5.90;;
21868;SDS011;11099;41.564;23.296;2023-07-31T10:02:59;7.28;;;5.85;;
21868;SDS011;11099;41.564;23.296;2023-07-31T10:05:28;6.38;;;5.88;;
21868;SDS011;11099;41.564;23.296;2023-07-31T10:07:57;5.85;;;5.35;;
21868;SDS011;11099;41.564;23.296;2023-07-31T10:10:23;6.13;;;5.63;;
21868;SDS011;11099;41.564;23.296;2023-07-31T10:12:50;6.38;;;5.93;;
21868;SDS011;11099;41.564;23.296;2023-07-31T10:15:18;7.20;;;6.70;;
21868;SDS011;11099;41.564;23.296;2023-07-31T10:17:44;6.20;;;5.78;;
21868;SDS011;11099;41.564;23.296;2023-07-31T10:22:39;6.10;;;5.50;;
21868;SDS011;11099;41.564;23.296;2023-07-31T10:25:06;5.30;;;4.80;;
21868;SDS011;11099;41.564;23.296;2023-07-31T10:27:33;5.57;;;5.17;;
21868;SDS011;11099;41.564;23.296;2023-07-31T10:30:01;4.50;;;4.20;;
21868;SDS011;11099;41.564;23.296;2023-07-31T10:32:30;4.82;;;4.43;;
21868;SDS011;11099;41.564;23.296;2023-07-31T10:34:56;4.72;;;4.45;;
21868;SDS011;11099;41.564;23.296;2023-07-31T10:39:56;6.03;;;5.53;;
21868;SDS011;11099;41.564;23.296;2023-07-31T10:42:33;6.82;;;5.88;;
21868;SDS011;11099;41.564;23.296;2023-07-31T10:45:07;6.15;;;5.68;;
21868;SDS011;11099;41.564;23.296;2023-07-31T10:47:38;6.50;;;5.90;;
21868;SDS011;11099;41.564;23.296;2023-07-31T10:50:16;6.07;;;5.45;;
21868;SDS011;11099;41.564;23.296;2023-07-31T10:52:50;5.97;;;5.47;;
21868;SDS011;11099;41.564;23.296;2023-07-31T10:55:24;6.03;;;5.05;;
21868;SDS011;11099;41.564;23.296;2023-07-31T10:57:55;4.88;;;4.47;;
21868;SDS011;11099;41.564;23.296;2023-07-31T11:00:24;4.22;;;3.92;;
21868;SDS011;11099;41.564;23.296;2023-07-31T11:10:39;4.43;;;4.03;;
21868;SDS011;11099;41.564;23.296;2023-07-31T11:13:04;3.92;;;3.70;;
21868;SDS011;11099;41.564;23.296;2023-07-31T11:15:30;4.13;;;3.70;;
21868;SDS011;11099;41.564;23.296;2023-07-31T11:17:56;4.05;;;3.75;;
21868;SDS011;11099;41.564;23.296;2023-07-31T11:20:26;7.00;;;3.60;;
21868;SDS011;11099;41.564;23.296;2023-07-31T11:22:52;3.63;;;3.33;;
21868;SDS011;11099;41.564;23.296;2023-07-31T11:25:17;3.00;;;2.83;;
21868;SDS011;11099;41.564;23.296;2023-07-31T11:27:43;3.35;;;3.15;;
21868;SDS011;11099;41.564;23.296;2023-07-31T11:30:09;3.20;;;3.00;;
21868;SDS011;11099;41.564;23.296;2023-07-31T11:32:38;3.28;;;2.97;;
21868;SDS011;11099;41.564;23.296;2023-07-31T11:35:04;3.33;;;3.13;;
21868;SDS011;11099;41.564;23.296;2023-07-31T11:37:43;3.45;;;3.25;;
21868;SDS011;11099;41.564;23.296;2023-07-31T11:42:35;3.88;;;3.58;;
21868;SDS011;11099;41.564;23.296;2023-07-31T11:45:06;3.65;;;3.20;;
21868;SDS011;11099;41.564;23.296;2023-07-31T11:47:34;3.50;;;3.30;;
21868;SDS011;11099;41.564;23.296;2023-07-31T11:50:02;3.97;;;3.67;;
21868;SDS011;11099;41.564;23.296;2023-07-31T11:52:36;3.50;;;3.00;;
21868;SDS011;11099;41.564;23.296;2023-07-31T11:55:06;2.92;;;2.83;;
21868;SDS011;11099;41.564;23.296;2023-07-31T11:57:34;3.25;;;3.05;;
21868;SDS011;11099;41.564;23.296;2023-07-31T12:00:02;3.13;;;2.83;;
21868;SDS011;11099;41.564;23.296;2023-07-31T12:02:28;2.90;;;2.70;;
21868;SDS011;11099;41.564;23.296;2023-07-31T12:04:55;3.05;;;2.88;;
21868;SDS011;11099;41.564;23.296;2023-07-31T12:07:21;3.20;;;3.00;;
21868;SDS011;11099;41.564;23.296;2023-07-31T12:09:54;3.40;;;3.03;;
21868;SDS011;11099;41.564;23.296;2023-07-31T12:12:21;2.63;;;2.42;;
21868;SDS011;11099;41.564;23.296;2023-07-31T12:14:47;4.57;;;2.75;;
21868;SDS011;11099;41.564;23.296;2023-07-31T12:17:13;4.22;;;2.60;;
21868;SDS011;11099;41.564;23.296;2023-07-31T12:19:39;3.03;;;2.83;;
21868;SDS011;11099;41.564;23.296;2023-07-31T12:22:14;2.97;;;2.78;;
21868;SDS011;11099;41.564;23.296;2023-07-31T12:24:41;2.55;;;2.45;;
21868;SDS011;11099;41.564;23.296;2023-07-31T12:27:13;3.63;;;2.75;;
21868;SDS011;11099;41.564;23.296;2023-07-31T12:29:41;2.60;;;2.40;;
21868;SDS011;11099;41.564;23.296;2023-07-31T12:32:24;2.42;;;2.33;;
21868;SDS011;11099;41.564;23.296;2023-07-31T12:34:50;3.08;;;2.78;;
21868;SDS011;11099;41.564;23.296;2023-07-31T12:37:16;2.30;;;2.20;;
21868;SDS011;11099;41.564;23.296;2023-07-31T12:39:42;2.28;;;2.17;;
21868;SDS011;11099;41.564;23.296;2023-07-31T12:42:08;1.90;;;1.80;;
21868;SDS011;11099;41.564;23.296;2023-07-31T12:44:33;2.05;;;1.95;;
21868;SDS011;11099;41.564;23.296;2023-07-31T12:46:59;2.85;;;1.63;;
21868;SDS011;11099;41.564;23.296;2023-07-31T12:49:24;2.00;;;1.90;;
21868;SDS011;11099;41.564;23.296;2023-07-31T12:51:50;2.08;;;1.98;;
21868;SDS011;11099;41.564;23.296;2023-07-31T12:54:15;2.42;;;2.22;;
21868;SDS011;11099;41.564;23.296;2023-07-31T12:56:41;1.55;;;1.45;;
21868;SDS011;11099;41.564;23.296;2023-07-31T12:59:06;3.65;;;1.73;;
21868;SDS011;11099;41.564;23.296;2023-07-31T13:01:32;3.05;;;1.65;;
21868;SDS011;11099;41.564;23.296;2023-07-31T13:03:57;1.92;;;1.70;;
21868;SDS011;11099;41.564;23.296;2023-07-31T13:06:24;4.90;;;2.00;;
21868;SDS011;11099;41.564;23.296;2023-07-31T13:08:51;1.98;;;1.88;;
21868;SDS011;11099;41.564;23.296;2023-07-31T13:11:16;2.70;;;1.42;;
21868;SDS011;11099;41.564;23.296;2023-07-31T13:13:42;8.60;;;2.20;;
21868;SDS011;11099;41.564;23.296;2023-07-31T13:16:07;4.38;;;1.80;;
21868;SDS011;11099;41.564;23.296;2023-07-31T13:18:33;2.15;;;1.88;;
21868;SDS011;11099;41.564;23.296;2023-07-31T13:20:58;2.78;;;1.92;;
21868;SDS011;11099;41.564;23.296;2023-07-31T13:23:24;3.05;;;1.70;;
21868;SDS011;11099;41.564;23.296;2023-07-31T13:25:49;1.67;;;1.58;;
21868;SDS011;11099;41.564;23.296;2023-07-31T13:28:15;1.73;;;1.63;;
21868;SDS011;11099;41.564;23.296;2023-07-31T13:30:40;1.85;;;1.75;;
21868;SDS011;11099;41.564;23.296;2023-07-31T13:33:06;1.73;;;1.60;;
21868;SDS011;11099;41.564;23.296;2023-07-31T13:35:31;1.50;;;1.40;;
21868;SDS011;11099;41.564;23.296;2023-07-31T13:37:57;3.65;;;1.70;;
21868;SDS011;11099;41.564;23.296;2023-07-31T13:40:22;2.50;;;1.65;;
21868;SDS011;11099;41.564;23.296;2023-07-31T13:42:48;1.70;;;1.30;;
21868;SDS011;11099;41.564;23.296;2023-07-31T13:45:14;1.60;;;1.50;;
21868;SDS011;11099;41.564;23.296;2023-07-31T13:47:39;2.00;;;1.90;;
21868;SDS011;11099;41.564;23.296;2023-07-31T13:50:05;1.80;;;1.70;;
21868;SDS011;11099;41.564;23.296;2023-07-31T13:52:30;2.28;;;2.08;;
21868;SDS011;11099;41.564;23.296;2023-07-31T13:54:56;2.05;;;1.55;;
21868;SDS011;11099;41.564;23.296;2023-07-31T13:57:22;2.13;;;1.95;;
21868;SDS011;11099;41.564;23.296;2023-07-31T13:59:48;1.55;;;1.45;;
21868;SDS011;11099;41.564;23.296;2023-07-31T14:02:14;2.00;;;1.90;;
21868;SDS011;11099;41.564;23.296;2023-07-31T14:04:40;2.92;;;1.70;;
21868;SDS011;11099;41.564;23.296;2023-07-31T14:07:05;2.10;;;2.00;;
21868;SDS011;11099;41.564;23.296;2023-07-31T14:09:31;1.77;;;1.67;;
21868;SDS011;11099;41.564;23.296;2023-07-31T14:11:57;2.10;;;1.92;;
21868;SDS011;11099;41.564;23.296;2023-07-31T14:14:22;1.80;;;1.70;;
21868;SDS011;11099;41.564;23.296;2023-07-31T14:16:48;2.03;;;1.92;;
21868;SDS011;11099;41.564;23.296;2023-07-31T14:19:13;2.20;;;2.10;;
21868;SDS011;11099;41.564;23.296;2023-07-31T14:21:39;2.03;;;1.90;;
21868;SDS011;11099;41.564;23.296;2023-07-31T14:24:04;1.60;;;1.50;;
21868;SDS011;11099;41.564;23.296;2023-07-31T14:26:30;1.88;;;1.77;;
21868;SDS011;11099;41.564;23.296;2023-07-31T14:28:55;1.80;;;1.70;;
21868;SDS011;11099;41.564;23.296;2023-07-31T14:31:21;4.03;;;1.63;;
21868;SDS011;11099;41.564;23.296;2023-07-31T14:33:46;1.70;;;1.60;;
21868;SDS011;11099;41.564;23.296;2023-07-31T14:36:12;2.20;;;1.60;;
21868;SDS011;11099;41.564;23.296;2023-07-31T14:38:37;1.80;;;1.70;;
21868;SDS011;11099;41.564;23.296;2023-07-31T14:41:03;1.83;;;1.73;;
21868;SDS011;11099;41.564;23.296;2023-07-31T14:43:28;1.90;;;1.80;;
21868;SDS011;11099;41.564;23.296;2023-07-31T14:45:54;2.22;;;2.13;;
21868;SDS011;11099;41.564;23.296;2023-07-31T14:48:22;1.75;;;1.65;;
21868;SDS011;11099;41.564;23.296;2023-07-31T14:50:48;1.85;;;1.75;;
21868;SDS011;11099;41.564;23.296;2023-07-31T14:53:13;2.17;;;2.08;;
21868;SDS011;11099;41.564;23.296;2023-07-31T14:55:39;2.13;;;2.03;;
21868;SDS011;11099;41.564;23.296;2023-07-31T14:58:04;4.28;;;2.25;;